Time;durP1;ratioP1;P1;durP2;ratioP2;P2;SDS_P1;SDS_P2;PMS_P1;PMS_P2;Temp;Humidity;BMP_temperature;BMP_pressure;BME280_temperature;BME280_humidity;BME280_pressure;Samples;Min_cycle;Max_cycle;Signal;HPM_P1;HPM_P2
2022/09/07 00:01:36;;;;;;;6.72;3.30;;;18.20;99.90;;;;;;5013615;28;20869;-73
2022/09/07 00:04:02;;;;;;;6.07;2.47;;;18.20;99.90;;;;;;5029028;28;20808;-74
2022/09/07 00:06:28;;;;;;;8.93;4.07;;;18.20;99.90;;;;;;5014146;28;20381;-73
2022/09/07 00:08:54;;;;;;;10.15;2.70;;;18.30;99.90;;;;;;5014167;28;20380;-73
2022/09/07 00:11:19;;;;;;;20.77;11.90;;;18.20;99.90;;;;;;5013416;28;20800;-73
2022/09/07 00:13:46;;;;;;;10.05;5.85;;;18.20;99.90;;;;;;5013553;28;20385;-73
2022/09/07 00:16:15;;;;;;;13.05;4.97;;;18.20;99.90;;;;;;5013324;28;20908;-73
2022/09/07 00:18:41;;;;;;;6.18;3.47;;;18.20;99.90;;;;;;5013400;28;20455;-74
2022/09/07 00:21:09;;;;;;;8.00;3.10;;;18.30;99.90;;;;;;5013327;28;20400;-73
2022/09/07 00:23:36;;;;;;;7.60;3.20;;;18.40;99.90;;;;;;5013134;28;20405;-74
2022/09/07 00:26:05;;;;;;;12.37;7.77;;;18.50;99.90;;;;;;5013414;28;20947;-73
2022/09/07 00:28:31;;;;;;;9.85;4.45;;;18.40;99.90;;;;;;5014471;28;20377;-74
2022/09/07 00:30:57;;;;;;;10.33;5.43;;;18.40;99.90;;;;;;5013896;28;20976;-74
2022/09/07 00:33:23;;;;;;;11.20;5.10;;;18.40;99.90;;;;;;5014443;28;20439;-71
2022/09/07 00:35:50;;;;;;;10.75;3.80;;;18.40;99.90;;;;;;5013404;28;20400;-71
2022/09/07 00:38:15;;;;;;;17.42;8.27;;;18.50;99.90;;;;;;5012891;28;20805;-74
2022/09/07 00:40:41;;;;;;;9.02;4.68;;;18.40;99.90;;;;;;5012566;28;20553;-72
2022/09/07 00:43:29;;;;;;;9.30;4.90;;;18.60;99.90;;;;;;5011949;28;20463;-73
2022/09/07 00:45:54;;;;;;;5.63;2.67;;;18.50;99.90;;;;;;5012161;28;20388;-73
2022/09/07 00:48:24;;;;;;;8.63;4.13;;;18.50;99.90;;;;;;5011911;28;20405;-72
2022/09/07 00:50:53;;;;;;;14.13;9.45;;;18.50;99.90;;;;;;5012308;28;20385;-72
2022/09/07 00:53:20;;;;;;;11.52;5.55;;;18.40;99.90;;;;;;5012178;28;20468;-72
2022/09/07 00:55:49;;;;;;;6.55;4.75;;;18.30;99.90;;;;;;5012110;28;20400;-71
2022/09/07 00:58:16;;;;;;;5.13;2.03;;;18.30;99.90;;;;;;5011638;28;20955;-73
2022/09/07 01:00:43;;;;;;;5.18;2.45;;;18.40;99.90;;;;;;5011838;28;20399;-72
2022/09/07 01:03:10;;;;;;;9.50;6.85;;;18.40;99.90;;;;;;5011519;28;20412;-72
2022/09/07 01:05:41;;;;;;;6.93;2.50;;;18.30;99.90;;;;;;5011981;28;20414;-72
2022/09/07 01:08:08;;;;;;;9.30;6.47;;;18.30;99.90;;;;;;5011799;28;20389;-72
2022/09/07 01:10:35;;;;;;;8.27;3.70;;;18.20;99.90;;;;;;5011774;28;20392;-72
2022/09/07 01:13:00;;;;;;;8.27;2.72;;;18.20;99.90;;;;;;5011506;28;20408;-72
2022/09/07 01:15:52;;;;;;;3.97;2.43;;;18.30;99.90;;;;;;5011397;28;20454;-72
2022/09/07 01:18:51;;;;;;;5.60;2.80;;;18.30;99.90;;;;;;5011691;28;20376;-72
2022/09/07 01:21:24;;;;;;;5.57;3.67;;;18.20;99.90;;;;;;5012818;28;20384;-72
2022/09/07 01:23:53;;;;;;;6.80;2.33;;;18.20;99.90;;;;;;5012043;28;20412;-71
2022/09/07 01:26:45;;;;;;;4.28;2.60;;;18.20;99.90;;;;;;5011097;28;20393;-72
2022/09/07 01:29:26;;;;;;;6.10;2.50;;;18.20;99.90;;;;;;5010691;28;20389;-72
2022/09/07 01:32:13;;;;;;;8.50;6.57;;;18.30;99.90;;;;;;5011153;28;20417;-72
2022/09/07 01:34:42;;;;;;;8.20;3.97;;;18.30;99.90;;;;;;5011092;28;20400;-73
2022/09/07 01:37:18;;;;;;;5.28;2.80;;;18.30;99.90;;;;;;5011110;28;20480;-72
2022/09/07 01:40:06;;;;;;;7.80;3.75;;;18.30;99.90;;;;;;5009687;28;20444;-71
2022/09/07 01:42:44;;;;;;;8.75;4.85;;;18.40;99.90;;;;;;5009433;28;20400;-74
2022/09/07 01:45:12;;;;;;;4.30;2.83;;;18.50;99.90;;;;;;5025875;28;20389;-73
2022/09/07 01:47:47;;;;;;;13.75;9.30;;;18.40;99.90;;;;;;5010723;28;20456;-72
2022/09/07 01:50:24;;;;;;;7.78;4.28;;;18.30;99.90;;;;;;5010912;28;20435;-71
2022/09/07 01:52:58;;;;;;;10.30;6.13;;;18.30;99.90;;;;;;5009285;28;20474;-73
2022/09/07 01:55:33;;;;;;;7.53;5.50;;;18.20;99.90;;;;;;5010744;28;20757;-74
2022/09/07 01:58:06;;;;;;;6.30;3.28;;;18.20;99.90;;;;;;5010947;28;20393;-73
2022/09/07 02:00:34;;;;;;;8.52;5.40;;;18.20;99.90;;;;;;5010782;28;20858;-72
2022/09/07 02:03:11;;;;;;;6.63;5.38;;;18.20;99.90;;;;;;5010238;28;20507;-73
2022/09/07 02:06:00;;;;;;;8.70;3.10;;;18.10;99.90;;;;;;5010447;28;20377;-74
2022/09/07 02:08:39;;;;;;;6.90;4.33;;;18.10;99.90;;;;;;5010110;28;21054;-73
2022/09/07 02:11:13;;;;;;;5.97;2.40;;;18.00;99.90;;;;;;5010262;28;20464;-74
2022/09/07 02:13:41;;;;;;;4.38;3.78;;;18.00;99.90;;;;;;5010739;28;20430;-74
2022/09/07 02:16:19;;;;;;;8.60;4.28;;;18.00;99.90;;;;;;5010486;28;20397;-73
2022/09/07 02:18:48;;;;;;;8.68;4.30;;;17.90;99.90;;;;;;5009460;28;20842;-72
2022/09/07 02:21:18;;;;;;;5.43;3.63;;;18.00;99.90;;;;;;5010486;28;20396;-72
2022/09/07 02:23:49;;;;;;;7.07;4.07;;;17.90;99.90;;;;;;5010172;28;20417;-71
2022/09/07 02:26:19;;;;;;;8.00;3.33;;;17.90;99.90;;;;;;5010423;28;20388;-73
2022/09/07 02:28:46;;;;;;;4.47;3.05;;;17.90;99.90;;;;;;5010210;28;20408;-71
2022/09/07 02:31:12;;;;;;;4.57;3.85;;;18.00;99.90;;;;;;5024576;28;20481;-72
2022/09/07 02:33:38;;;;;;;5.90;3.60;;;18.00;99.90;;;;;;5009963;28;20469;-72
2022/09/07 02:36:04;;;;;;;6.57;4.38;;;18.00;99.90;;;;;;5025202;28;20476;-72
2022/09/07 02:38:31;;;;;;;9.33;4.60;;;18.00;99.90;;;;;;5010659;28;20392;-71
2022/09/07 02:40:59;;;;;;;13.98;5.65;;;18.00;99.90;;;;;;5011151;28;20435;-72
2022/09/07 02:43:27;;;;;;;6.00;5.40;;;18.00;99.90;;;;;;5014344;28;20536;-73
2022/09/07 02:46:05;;;;;;;7.85;4.60;;;18.00;99.90;;;;;;5014587;28;20389;-72
2022/09/07 02:48:43;;;;;;;5.65;4.60;;;18.10;99.90;;;;;;5014383;28;20400;-72
2022/09/07 02:51:35;;;;;;;4.30;3.72;;;18.00;99.90;;;;;;5013859;28;20385;-73
2022/09/07 02:54:23;;;;;;;4.43;3.08;;;18.00;99.90;;;;;;5011772;28;20397;-72
2022/09/07 02:56:53;;;;;;;5.00;3.40;;;18.00;99.90;;;;;;5013712;28;20388;-74
2022/09/07 02:59:45;;;;;;;8.48;5.60;;;17.90;99.90;;;;;;5014027;28;20392;-72
2022/09/07 03:02:34;;;;;;;11.18;5.82;;;17.90;99.90;;;;;;5006620;28;20393;-72
2022/09/07 03:05:17;;;;;;;8.07;6.13;;;17.80;99.90;;;;;;5015630;28;20401;-72
2022/09/07 03:07:59;;;;;;;5.03;4.55;;;17.70;99.90;;;;;;5017812;28;20789;-72
2022/09/07 03:10:27;;;;;;;4.80;4.00;;;17.70;99.90;;;;;;5017323;28;20415;-73
2022/09/07 03:12:52;;;;;;;5.68;4.50;;;17.80;99.90;;;;;;5017333;28;20377;-72
2022/09/07 03:15:21;;;;;;;5.30;4.30;;;17.70;99.90;;;;;;5015253;28;20764;-72
2022/09/07 03:17:47;;;;;;;9.23;5.00;;;17.90;99.90;;;;;;5015513;28;20866;-72
2022/09/07 03:20:13;;;;;;;13.38;6.60;;;17.90;99.90;;;;;;5015274;28;20389;-73
2022/09/07 03:22:39;;;;;;;9.85;6.30;;;17.90;99.90;;;;;;5014459;28;20604;-73
2022/09/07 03:25:05;;;;;;;11.57;6.90;;;17.80;99.90;;;;;;5014386;28;20467;-73
2022/09/07 03:27:32;;;;;;;8.90;7.03;;;17.90;99.90;;;;;;5029196;28;20388;-72
2022/09/07 03:29:58;;;;;;;12.15;7.93;;;17.90;99.90;;;;;;5013792;28;20523;-73
2022/09/07 03:32:28;;;;;;;10.88;8.30;;;17.90;99.90;;;;;;5013267;28;20389;-73
2022/09/07 03:34:53;;;;;;;15.27;9.95;;;17.80;99.90;;;;;;5013715;28;20820;-73
2022/09/07 03:37:19;;;;;;;18.00;11.48;;;17.70;99.90;;;;;;5011741;28;20404;-72
2022/09/07 03:39:44;;;;;;;18.27;11.53;;;17.70;99.90;;;;;;5013693;28;20389;-71
2022/09/07 03:42:10;;;;;;;22.00;13.10;;;17.60;99.90;;;;;;5013816;28;20498;-72
2022/09/07 03:44:35;;;;;;;25.23;15.02;;;17.60;99.90;;;;;;5014312;28;20898;-73
2022/09/07 03:47:02;;;;;;;27.33;17.10;;;17.50;99.90;;;;;;5028883;23;20469;-71
2022/09/07 03:49:27;;;;;;;26.42;13.82;;;17.50;99.90;;;;;;5024237;28;20757;-70
2022/09/07 03:51:53;;;;;;;23.37;13.00;;;17.50;99.90;;;;;;5013706;28;20396;-71
2022/09/07 03:54:18;;;;;;;24.03;14.50;;;17.40;99.90;;;;;;5014048;28;20385;-72
2022/09/07 03:56:44;;;;;;;38.88;26.77;;;17.40;99.90;;;;;;5013765;28;20789;-70
2022/09/07 03:59:09;;;;;;;25.20;15.30;;;17.40;99.90;;;;;;5014560;28;20379;-71
2022/09/07 04:01:35;;;;;;;39.33;22.87;;;17.50;99.90;;;;;;5013845;28;20400;-71
2022/09/07 04:04:01;;;;;;;43.38;30.08;;;17.50;99.90;;;;;;5013919;28;20461;-71
2022/09/07 04:06:27;;;;;;;44.00;28.20;;;17.50;99.90;;;;;;5013836;28;20385;-71
2022/09/07 04:08:55;;;;;;;30.80;19.23;;;17.40;99.90;;;;;;5014492;28;20742;-72
2022/09/07 04:11:21;;;;;;;33.40;21.40;;;17.40;99.90;;;;;;5014152;28;20901;-71
2022/09/07 04:13:47;;;;;;;45.88;26.55;;;17.40;99.90;;;;;;5013600;28;20389;-73
2022/09/07 04:16:18;;;;;;;39.33;23.25;;;17.40;99.90;;;;;;5013294;28;20900;-70
2022/09/07 04:18:44;;;;;;;36.53;20.77;;;17.40;99.90;;;;;;5013378;28;20408;-71
2022/09/07 04:21:10;;;;;;;45.47;24.30;;;17.40;99.90;;;;;;5013431;28;20393;-71
2022/09/07 04:23:40;;;;;;;42.67;26.53;;;17.40;99.90;;;;;;5013108;28;20433;-71
2022/09/07 04:26:11;;;;;;;47.50;26.77;;;17.40;99.90;;;;;;5013215;28;20914;-70
2022/09/07 04:28:37;;;;;;;37.53;20.30;;;17.30;99.90;;;;;;5012143;28;20405;-69
2022/09/07 04:31:02;;;;;;;50.05;32.35;;;17.40;99.90;;;;;;5013720;28;20452;-72
2022/09/07 04:33:30;;;;;;;41.30;22.07;;;17.40;99.90;;;;;;5013845;28;20837;-71
2022/09/07 04:35:59;;;;;;;40.85;22.05;;;17.40;99.90;;;;;;5013846;28;20877;-70
2022/09/07 04:38:25;;;;;;;37.72;20.98;;;17.40;99.90;;;;;;5013226;28;20396;-72
2022/09/07 04:41:01;;;;;;;45.23;25.17;;;17.30;99.90;;;;;;5013293;28;20466;-71
2022/09/07 04:43:28;;;;;;;47.53;28.75;;;17.30;99.90;;;;;;5012819;28;20397;-71
2022/09/07 04:45:54;;;;;;;40.47;23.15;;;17.30;99.90;;;;;;5012890;28;20400;-74
2022/09/07 04:48:20;;;;;;;40.60;23.63;;;17.30;99.90;;;;;;5012583;28;20389;-71
2022/09/07 04:50:45;;;;;;;44.67;27.47;;;17.30;99.90;;;;;;5012943;28;20400;-70
2022/09/07 04:53:11;;;;;;;41.70;22.80;;;17.30;99.90;;;;;;5012884;28;20475;-71
2022/09/07 04:55:36;;;;;;;36.33;23.20;;;17.30;99.90;;;;;;5013715;28;20389;-71
2022/09/07 04:58:02;;;;;;;46.20;25.97;;;17.30;99.90;;;;;;5012850;28;20793;-69
2022/09/07 05:00:27;;;;;;;43.50;24.67;;;17.30;99.90;;;;;;5014118;28;20403;-71
2022/09/07 05:02:53;;;;;;;76.78;46.70;;;17.30;99.90;;;;;;5012603;28;20391;-71
2022/09/07 05:05:18;;;;;;;56.95;35.00;;;17.20;99.90;;;;;;5013057;28;20431;-72
2022/09/07 05:07:44;;;;;;;50.97;26.27;;;17.20;99.90;;;;;;5013222;28;20393;-70
2022/09/07 05:10:10;;;;;;;49.70;26.70;;;17.20;99.90;;;;;;5012659;28;20408;-70
2022/09/07 05:12:35;;;;;;;70.13;41.95;;;17.20;99.90;;;;;;5012697;28;20447;-73
2022/09/07 05:15:01;;;;;;;66.40;38.10;;;17.20;99.90;;;;;;5012529;28;20503;-71
2022/09/07 05:17:27;;;;;;;52.97;31.10;;;17.20;99.90;;;;;;5012959;28;20758;-73
2022/09/07 05:19:53;;;;;;;55.10;27.67;;;17.40;99.90;;;;;;5012713;28;20436;-70
2022/09/07 05:22:19;;;;;;;55.90;31.15;;;17.40;99.90;;;;;;5011948;28;20389;-72
2022/09/07 05:24:46;;;;;;;56.35;30.33;;;17.40;99.90;;;;;;5012573;28;20955;-71
2022/09/07 05:27:12;;;;;;;61.10;29.65;;;17.40;99.90;;;;;;5012200;28;20766;-71
2022/09/07 05:29:37;;;;;;;52.30;30.20;;;17.40;99.90;;;;;;5012201;28;20412;-70
2022/09/07 05:32:03;;;;;;;58.65;33.13;;;17.40;99.90;;;;;;5012186;28;20388;-73
2022/09/07 05:34:28;;;;;;;59.07;29.23;;;17.40;99.90;;;;;;5012616;28;20397;-70
2022/09/07 05:36:54;;;;;;;70.03;36.87;;;17.40;99.90;;;;;;5012595;28;20396;-71
2022/09/07 05:39:20;;;;;;;53.45;32.35;;;17.40;99.90;;;;;;5013112;28;20399;-71
2022/09/07 05:41:45;;;;;;;61.03;33.35;;;17.40;99.90;;;;;;5013837;28;20385;-71
2022/09/07 05:44:12;;;;;;;54.63;32.67;;;17.50;99.90;;;;;;5016286;28;20777;-71
2022/09/07 05:46:39;;;;;;;67.32;40.45;;;17.50;99.90;;;;;;5018043;28;20401;-74
2022/09/07 05:49:06;;;;;;;80.88;48.40;;;17.50;99.90;;;;;;5017940;28;20408;-72
2022/09/07 05:51:32;;;;;;;55.80;29.60;;;17.60;99.90;;;;;;5030530;28;20455;-71
2022/09/07 05:53:58;;;;;;;64.80;41.40;;;17.60;99.90;;;;;;5010668;28;20408;-74
2022/09/07 05:56:24;;;;;;;64.82;39.20;;;17.70;99.90;;;;;;5010462;28;20488;-73
2022/09/07 05:58:50;;;;;;;62.27;39.27;;;17.80;99.90;;;;;;5009380;28;20979;-72
2022/09/07 06:01:16;;;;;;;78.60;45.20;;;17.90;99.90;;;;;;5010315;28;20469;-73
2022/09/07 06:03:43;;;;;;;77.77;52.37;;;18.00;99.90;;;;;;5010708;28;20547;-73
2022/09/07 06:06:11;;;;;;;109.40;78.10;;;18.10;99.90;;;;;;5008999;28;20420;-72
2022/09/07 06:08:38;;;;;;;57.45;37.45;;;18.20;99.90;;;;;;5009828;28;20879;-72
2022/09/07 06:11:06;;;;;;;64.50;45.40;;;18.30;99.90;;;;;;5011047;28;20377;-73
2022/09/07 06:13:32;;;;;;;35.58;25.55;;;18.40;99.90;;;;;;5009951;28;20419;-72
2022/09/07 06:16:03;;;;;;;53.20;32.20;;;18.50;99.90;;;;;;5035783;28;20428;-75
2022/09/07 06:18:30;;;;;;;41.00;26.90;;;18.60;99.90;;;;;;5018172;28;20401;-75
2022/09/07 06:21:05;;;;;;;34.40;21.30;;;18.80;99.90;;;;;;5012714;28;20397;-73
2022/09/07 06:23:31;;;;;;;39.30;27.15;;;18.90;99.90;;;;;;5012437;28;20440;-73
2022/09/07 06:25:57;;;;;;;40.83;30.05;;;18.90;99.90;;;;;;5010735;28;20393;-73
2022/09/07 06:28:31;;;;;;;52.95;36.00;;;18.90;99.90;;;;;;5010794;28;20389;-73
2022/09/07 06:31:00;;;;;;;43.10;32.78;;;19.00;99.90;;;;;;5024997;28;20893;-73
2022/09/07 06:33:26;;;;;;;46.63;30.73;;;19.00;99.90;;;;;;5010170;28;20405;-72
2022/09/07 06:36:04;;;;;;;42.88;25.52;;;19.00;99.90;;;;;;5018425;28;20702;-72
2022/09/07 06:38:35;;;;;;;42.72;24.52;;;19.10;99.90;;;;;;5028106;28;20392;-72
2022/09/07 06:41:12;;;;;;;44.75;29.88;;;19.00;99.90;;;;;;5023495;28;20388;-73
2022/09/07 06:43:38;;;;;;;68.22;44.65;;;19.10;99.90;;;;;;5020306;28;20400;-73
2022/09/07 06:46:05;;;;;;;53.27;34.20;;;19.20;99.90;;;;;;5018173;28;20393;-72
2022/09/07 06:48:31;;;;;;;45.60;31.02;;;19.50;99.90;;;;;;5015146;28;20424;-70
2022/09/07 06:51:08;;;;;;;31.90;18.40;;;19.70;99.90;;;;;;5013198;28;20429;-72
2022/09/07 06:53:35;;;;;;;29.83;20.40;;;19.90;99.90;;;;;;5012276;28;20381;-73
2022/09/07 06:56:05;;;;;;;24.93;17.10;;;20.10;99.90;;;;;;5012012;28;20472;-73
2022/09/07 06:58:30;;;;;;;24.45;16.33;;;20.30;99.90;;;;;;5012430;28;20388;-74
2022/09/07 07:00:56;;;;;;;29.60;18.50;;;20.30;99.90;;;;;;5012919;28;20388;-73
2022/09/07 07:03:21;;;;;;;29.13;19.43;;;20.40;99.90;;;;;;5013047;28;20411;-74
2022/09/07 07:05:55;;;;;;;25.20;17.73;;;20.50;99.90;;;;;;5011525;28;20408;-72
2022/09/07 07:08:22;;;;;;;29.30;19.70;;;20.50;99.90;;;;;;5011470;28;20813;-71
2022/09/07 07:10:48;;;;;;;29.25;19.20;;;20.60;99.90;;;;;;5011818;28;20777;-72
2022/09/07 07:13:15;;;;;;;28.35;20.85;;;20.60;99.90;;;;;;5011695;28;20791;-73
2022/09/07 07:15:40;;;;;;;29.35;20.48;;;20.70;99.90;;;;;;5027431;28;20392;-73
2022/09/07 07:18:07;;;;;;;30.88;19.90;;;20.80;98.70;;;;;;5011994;28;20395;-73
2022/09/07 07:20:35;;;;;;;29.55;18.80;;;20.90;98.50;;;;;;5008802;28;20414;-72
2022/09/07 07:23:00;;;;;;;23.47;17.93;;;21.00;91.10;;;;;;5006681;28;20402;-72
2022/09/07 07:25:26;;;;;;;24.40;17.07;;;21.10;88.00;;;;;;4993210;28;20823;-72
2022/09/07 07:27:52;;;;;;;22.33;16.75;;;21.10;88.60;;;;;;4994202;28;20394;-74
2022/09/07 07:30:19;;;;;;;22.42;17.40;;;21.10;88.40;;;;;;5021485;28;20396;-72
2022/09/07 07:32:45;;;;;;;24.25;16.10;;;21.20;87.90;;;;;;5006373;28;20430;-74
2022/09/07 07:35:12;;;;;;;24.02;16.98;;;21.30;86.10;;;;;;5012022;28;20425;-71
2022/09/07 07:37:37;;;;;;;22.90;15.90;;;21.40;85.70;;;;;;5012537;28;20480;-72
2022/09/07 07:40:05;;;;;;;23.57;15.27;;;21.40;85.90;;;;;;5013258;28;20567;-71
2022/09/07 07:42:31;;;;;;;21.75;15.55;;;21.40;85.30;;;;;;5013538;28;20416;-73
2022/09/07 07:44:57;;;;;;;21.85;15.23;;;21.50;83.60;;;;;;5014297;28;20397;-71
2022/09/07 07:47:22;;;;;;;24.20;15.18;;;21.40;86.70;;;;;;5011990;28;20423;-73
2022/09/07 07:49:48;;;;;;;22.83;15.03;;;21.30;86.80;;;;;;5011871;28;20405;-72
2022/09/07 07:52:15;;;;;;;23.40;15.43;;;21.20;87.00;;;;;;5014735;28;20416;-72
2022/09/07 07:54:41;;;;;;;24.42;15.65;;;21.20;86.70;;;;;;5013284;28;20832;-73
2022/09/07 07:57:07;;;;;;;22.38;15.00;;;21.10;88.60;;;;;;5017475;28;20999;-72
2022/09/07 07:59:33;;;;;;;20.40;14.60;;;20.90;91.00;;;;;;5037563;28;20393;-73
2022/09/07 08:02:03;;;;;;;16.08;11.50;;;21.00;91.20;;;;;;5016793;28;20462;-74
2022/09/07 08:04:30;;;;;;;17.08;9.00;;;21.10;89.40;;;;;;5020531;28;20478;-73
2022/09/07 08:06:56;;;;;;;11.55;7.15;;;20.90;86.80;;;;;;5016214;28;20389;-72
2022/09/07 08:09:22;;;;;;;12.57;6.68;;;20.80;88.10;;;;;;5014725;28;20920;-73
2022/09/07 08:11:47;;;;;;;10.75;6.70;;;20.90;83.90;;;;;;5003375;28;20399;-72
2022/09/07 08:14:13;;;;;;;9.82;7.38;;;20.80;84.40;;;;;;5012961;28;20809;-73
2022/09/07 08:16:41;;;;;;;11.03;6.70;;;20.90;84.00;;;;;;5005636;28;20751;-75
2022/09/07 08:19:07;;;;;;;11.40;6.15;;;21.10;79.10;;;;;;4991966;28;20429;-71
2022/09/07 08:21:33;;;;;;;11.80;6.40;;;21.20;77.70;;;;;;4998864;28;20397;-73
2022/09/07 08:23:58;;;;;;;11.00;6.57;;;21.30;78.60;;;;;;4997414;28;21063;-71
2022/09/07 08:26:24;;;;;;;10.25;6.53;;;21.20;81.50;;;;;;4996687;28;20385;-73
2022/09/07 08:28:50;;;;;;;11.43;7.30;;;21.30;82.70;;;;;;4997730;28;20794;-74
2022/09/07 08:31:16;;;;;;;10.53;6.83;;;21.20;86.60;;;;;;5000380;28;20403;-73
2022/09/07 08:33:42;;;;;;;15.57;7.60;;;21.30;80.50;;;;;;5007724;28;20421;-73
2022/09/07 08:36:14;;;;;;;14.40;7.70;;;21.40;75.30;;;;;;4999515;28;20452;-72
2022/09/07 08:38:40;;;;;;;12.00;7.60;;;21.30;77.40;;;;;;5002599;28;20390;-71
2022/09/07 08:41:54;;;;;;;12.23;8.00;;;21.40;79.90;;;;;;5002916;28;20401;-75
2022/09/07 08:44:31;;;;;;;12.90;7.80;;;21.30;76.70;;;;;;5006924;28;20413;-74
2022/09/07 08:47:18;;;;;;;10.48;7.75;;;21.50;77.90;;;;;;5007763;28;20430;-74
2022/09/07 08:49:53;;;;;;;13.00;8.00;;;21.70;77.10;;;;;;5009227;28;20752;-74
2022/09/07 08:52:37;;;;;;;17.25;7.93;;;22.00;79.90;;;;;;5007539;28;20450;-74
2022/09/07 08:55:19;;;;;;;14.45;6.85;;;22.50;74.10;;;;;;5000951;28;20386;-74
2022/09/07 08:57:54;;;;;;;12.15;7.40;;;22.70;69.60;;;;;;4998088;28;20414;-73
2022/09/07 09:00:20;;;;;;;7.30;4.10;;;22.90;67.00;;;;;;4995546;28;20416;-75
2022/09/07 09:02:46;;;;;;;7.53;3.75;;;22.90;59.50;;;;;;4994210;28;20402;-72
2022/09/07 09:05:37;;;;;;;8.50;4.20;;;22.80;54.60;;;;;;4996389;28;20975;-73
2022/09/07 09:08:58;;;;;;;5.35;3.85;;;22.80;54.60;;;;;;5010018;28;20775;-73
2022/09/07 09:12:00;;;;;;;8.00;3.80;;;23.20;56.20;;;;;;4935310;29;20431;-73
2022/09/07 09:14:37;;;;;;;6.20;3.30;;;23.00;52.00;;;;;;4996232;28;20445;-75
2022/09/07 09:17:10;;;;;;;5.25;3.20;;;23.40;51.20;;;;;;4997362;28;20449;-73
2022/09/07 09:19:48;;;;;;;6.35;3.00;;;23.40;48.90;;;;;;4998311;28;20386;-74
2022/09/07 09:22:19;;;;;;;7.15;3.90;;;23.00;52.10;;;;;;4996690;28;20390;-74
2022/09/07 09:24:55;;;;;;;6.60;4.22;;;22.60;58.60;;;;;;4996425;28;20409;-74
2022/09/07 09:27:21;;;;;;;8.45;4.55;;;22.40;61.80;;;;;;4996334;28;20393;-74
2022/09/07 09:29:46;;;;;;;7.22;3.90;;;22.40;59.50;;;;;;4996730;28;20387;-72
2022/09/07 09:32:41;;;;;;;9.77;4.37;;;22.70;58.20;;;;;;4996583;28;20386;-73
2022/09/07 09:35:27;;;;;;;8.30;3.58;;;23.00;58.00;;;;;;5011336;28;20749;-72
2022/09/07 09:37:53;;;;;;;7.03;3.70;;;23.40;53.10;;;;;;4995632;28;20390;-73
2022/09/07 09:40:33;;;;;;;4.20;3.40;;;23.60;48.60;;;;;;4995822;28;20388;-75
2022/09/07 09:43:03;;;;;;;8.10;3.30;;;23.90;46.40;;;;;;4996555;28;20386;-75
2022/09/07 09:45:33;;;;;;;6.20;3.90;;;23.80;45.00;;;;;;4996572;28;20941;-74
2022/09/07 09:48:00;;;;;;;9.25;3.90;;;23.40;47.30;;;;;;5028338;23;20521;-73
2022/09/07 09:50:32;;;;;;;5.55;3.40;;;23.20;48.50;;;;;;5050174;28;20388;-73
2022/09/07 09:53:00;;;;;;;8.27;3.75;;;23.10;49.70;;;;;;5050962;28;20389;-73
2022/09/07 09:55:32;;;;;;;6.10;3.20;;;23.00;50.70;;;;;;5050895;28;20432;-73
2022/09/07 09:58:24;;;;;;;5.07;3.20;;;23.00;50.00;;;;;;5050840;28;20377;-73
2022/09/07 10:01:00;;;;;;;11.75;3.58;;;23.10;47.40;;;;;;5049153;28;20931;-74
2022/09/07 10:03:27;;;;;;;8.20;3.30;;;23.00;48.70;;;;;;5050510;28;20465;-74
2022/09/07 10:05:54;;;;;;;6.43;3.50;;;23.10;47.10;;;;;;5050769;28;20758;-74
2022/09/07 10:08:23;;;;;;;4.40;3.60;;;23.40;44.30;;;;;;5050107;28;20388;-74
2022/09/07 10:10:57;;;;;;;9.27;4.10;;;23.60;45.50;;;;;;5050849;28;20392;-74
2022/09/07 10:13:27;;;;;;;3.80;3.30;;;23.80;42.90;;;;;;5045719;28;20813;-74
2022/09/07 10:15:55;;;;;;;9.80;3.50;;;23.80;42.50;;;;;;5033492;28;20387;-74
2022/09/07 10:18:48;;;;;;;6.47;4.10;;;23.90;42.60;;;;;;5031088;28;20478;-74
2022/09/07 10:21:34;;;;;;;7.63;4.38;;;24.20;40.80;;;;;;5042395;28;20501;-74
2022/09/07 10:24:14;;;;;;;8.63;4.70;;;24.50;38.90;;;;;;5048397;28;20529;-74
2022/09/07 10:26:46;;;;;;;6.25;4.40;;;24.60;38.00;;;;;;5049129;28;20611;-75
2022/09/07 10:29:30;;;;;;;7.80;3.80;;;24.70;38.20;;;;;;5039856;28;20918;-74
2022/09/07 10:32:07;;;;;;;8.63;4.10;;;24.50;38.20;;;;;;5028662;28;20461;-73
2022/09/07 10:34:41;;;;;;;7.68;3.90;;;24.40;39.80;;;;;;5028736;28;20383;-74
2022/09/07 10:37:09;;;;;;;6.22;4.70;;;24.70;39.50;;;;;;5028840;28;20473;-74
2022/09/07 10:39:42;;;;;;;7.25;4.20;;;25.00;38.40;;;;;;5031301;28;20906;-77
2022/09/07 10:42:08;;;;;;;6.53;3.67;;;25.00;38.60;;;;;;5027975;28;20395;-74
2022/09/07 10:44:59;;;;;;;6.40;3.77;;;25.10;37.10;;;;;;5028474;28;20399;-74
2022/09/07 10:47:30;;;;;;;8.93;4.40;;;25.30;36.50;;;;;;5042813;28;20397;-73
2022/09/07 10:50:07;;;;;;;6.78;4.60;;;25.60;33.60;;;;;;5048190;28;20381;-73
2022/09/07 10:52:38;;;;;;;8.10;4.00;;;25.80;32.90;;;;;;5033921;28;20431;-73
2022/09/07 10:55:15;;;;;;;6.95;4.28;;;26.00;33.50;;;;;;5039864;28;20479;-73
2022/09/07 10:58:13;;;;;;;5.72;4.15;;;26.00;32.40;;;;;;5027547;28;20813;-75
2022/09/07 11:00:59;;;;;;;6.80;4.20;;;25.80;32.30;;;;;;5026451;28;20418;-74
2022/09/07 11:03:40;;;;;;;5.65;3.85;;;25.70;32.20;;;;;;5034798;28;20402;-75
2022/09/07 11:06:20;;;;;;;7.50;4.20;;;25.70;33.00;;;;;;5032202;28;20729;-73
2022/09/07 11:09:14;;;;;;;6.95;4.00;;;26.30;30.70;;;;;;5032123;28;20416;-75
2022/09/07 11:11:42;;;;;;;7.03;4.50;;;26.50;29.50;;;;;;5031691;28;20391;-73
2022/09/07 11:14:13;;;;;;;6.47;4.15;;;26.60;29.10;;;;;;5031933;28;20520;-73
2022/09/07 11:16:54;;;;;;;6.47;3.90;;;26.80;28.00;;;;;;5030897;28;20456;-73
2022/09/07 11:19:37;;;;;;;6.40;4.13;;;27.00;28.90;;;;;;5051917;28;20397;-73
2022/09/07 11:22:28;;;;;;;7.07;4.65;;;27.50;26.60;;;;;;5051572;28;20799;-73
2022/09/07 11:25:19;;;;;;;8.27;4.60;;;27.30;26.20;;;;;;5043789;28;20419;-73
2022/09/07 11:28:11;;;;;;;10.00;4.45;;;26.90;27.00;;;;;;5041282;28;20500;-75
2022/09/07 11:30:46;;;;;;;9.02;4.30;;;26.70;27.70;;;;;;5049263;28;20802;-73
2022/09/07 11:33:20;;;;;;;7.90;4.63;;;26.60;27.20;;;;;;5041796;28;20402;-73
2022/09/07 11:35:53;;;;;;;7.47;4.80;;;26.60;28.10;;;;;;5032375;28;20799;-73
2022/09/07 11:38:26;;;;;;;10.07;5.50;;;26.60;27.70;;;;;;5043595;28;20774;-73
2022/09/07 11:41:21;;;;;;;6.03;4.80;;;26.30;29.10;;;;;;5051212;28;20472;-72
2022/09/07 11:43:55;;;;;;;7.00;5.40;;;26.20;28.50;;;;;;5050746;28;20979;-73
2022/09/07 11:46:31;;;;;;;8.43;5.25;;;26.00;29.10;;;;;;5038145;28;20403;-75
2022/09/07 11:48:58;;;;;;;7.47;4.80;;;26.10;28.70;;;;;;5036444;28;20899;-74
2022/09/07 11:51:32;;;;;;;9.05;4.47;;;26.10;28.50;;;;;;5031189;28;20410;-73
2022/09/07 11:54:22;;;;;;;8.00;4.00;;;26.20;28.70;;;;;;5031239;28;20379;-74
2022/09/07 11:56:54;;;;;;;6.40;4.60;;;26.50;26.90;;;;;;5031651;28;20384;-75
2022/09/07 11:59:31;;;;;;;6.40;4.32;;;26.60;26.60;;;;;;5034977;28;20404;-73
2022/09/07 12:02:15;;;;;;;8.60;4.40;;;26.70;24.10;;;;;;5051786;28;20386;-73
2022/09/07 12:05:20;;;;;;;8.13;4.22;;;26.70;24.70;;;;;;5051662;28;20774;-74
2022/09/07 12:07:57;;;;;;;7.85;4.72;;;27.00;23.20;;;;;;5038484;28;20393;-74
2022/09/07 12:10:41;;;;;;;8.30;4.73;;;27.00;24.20;;;;;;5042543;28;20460;-74
2022/09/07 12:13:16;;;;;;;8.68;6.18;;;26.70;25.80;;;;;;5049267;28;20385;-73
2022/09/07 12:15:47;;;;;;;9.67;6.13;;;26.40;26.20;;;;;;5039823;28;20395;-74
2022/09/07 12:18:34;;;;;;;8.30;5.70;;;26.00;28.70;;;;;;5041612;28;20738;-74
2022/09/07 12:20:59;;;;;;;6.22;5.28;;;26.00;28.70;;;;;;5034118;28;20383;-74
2022/09/07 12:23:32;;;;;;;14.27;6.17;;;26.00;27.80;;;;;;5038554;28;20413;-74
2022/09/07 12:26:40;;;;;;;7.13;5.32;;;26.10;27.90;;;;;;5052986;28;20754;-74
2022/09/07 12:29:19;;;;;;;9.15;5.13;;;26.40;27.40;;;;;;5049697;28;20382;-73
2022/09/07 12:31:48;;;;;;;6.78;4.90;;;26.90;24.50;;;;;;5052675;28;20890;-73
2022/09/07 12:34:56;;;;;;;7.00;4.28;;;27.20;22.30;;;;;;5053199;28;20509;-74
2022/09/07 12:37:25;;;;;;;5.82;3.20;;;27.30;21.30;;;;;;5033523;28;20469;-75
2022/09/07 12:40:25;;;;;;;5.50;2.95;;;27.30;20.00;;;;;;5032930;28;20379;-78
2022/09/07 12:43:11;;;;;;;4.68;3.00;;;27.20;20.40;;;;;;5033574;28;20424;-74
2022/09/07 12:45:37;;;;;;;5.18;2.70;;;27.10;19.80;;;;;;5037403;28;20807;-75
2022/09/07 12:48:11;;;;;;;10.00;2.80;;;27.00;20.30;;;;;;5052559;28;20433;-74
2022/09/07 12:50:55;;;;;;;9.00;4.10;;;27.00;20.50;;;;;;5052639;28;20476;-75
2022/09/07 12:53:46;;;;;;;9.00;4.30;;;27.20;21.70;;;;;;5052610;28;20401;-74
2022/09/07 12:56:33;;;;;;;9.67;4.20;;;26.90;24.00;;;;;;5052798;28;20798;-75
2022/09/07 12:59:18;;;;;;;6.53;3.63;;;26.50;23.10;;;;;;5052472;28;20902;-74
2022/09/07 13:02:02;;;;;;;5.17;4.00;;;26.80;22.10;;;;;;5052313;28;20420;-74
2022/09/07 13:04:50;;;;;;;5.63;2.92;;;26.80;22.20;;;;;;5052062;28;20401;-75